Time;durP1;ratioP1;P1;durP2;ratioP2;P2;SDS_P1;SDS_P2;PMS_P1;PMS_P2;Temp;Humidity;BMP_temperature;BMP_pressure;BME280_temperature;BME280_humidity;BME280_pressure;Samples;Min_cycle;Max_cycle;Signal;HPM_P1;HPM_P2
2022/02/18 00:02:21;;;;;;;22.83;8.82;;;27.80;73.40;;;;;;4983431;28;20204;-48
2022/02/18 00:04:48;;;;;;;24.00;8.48;;;27.80;73.20;;;;;;4983264;28;20057;-50
2022/02/18 00:07:14;;;;;;;27.35;8.77;;;27.80;73.20;;;;;;4983323;28;20083;-48
2022/02/18 00:09:41;;;;;;;27.10;8.07;;;27.70;73.10;;;;;;4983137;28;20218;-50
2022/02/18 00:12:08;;;;;;;18.63;7.78;;;27.70;73.00;;;;;;4983237;28;20031;-50
2022/02/18 00:14:34;;;;;;;18.30;7.65;;;27.70;72.70;;;;;;4983143;28;20230;-46
2022/02/18 00:17:01;;;;;;;22.38;8.07;;;27.70;72.50;;;;;;4983101;28;20019;-46
2022/02/18 00:19:29;;;;;;;23.55;7.88;;;27.70;72.30;;;;;;4983059;28;20231;-47
2022/02/18 00:21:55;;;;;;;30.63;8.50;;;27.70;72.30;;;;;;4983226;28;20303;-48
2022/02/18 00:24:22;;;;;;;20.52;7.70;;;27.70;72.10;;;;;;4983723;28;20035;-55
2022/02/18 00:26:49;;;;;;;17.17;7.80;;;27.70;71.90;;;;;;4983002;28;20034;-51
2022/02/18 00:29:15;;;;;;;23.83;8.60;;;27.70;71.90;;;;;;4983477;28;20045;-47
2022/02/18 00:31:42;;;;;;;19.88;8.20;;;27.70;71.80;;;;;;4982919;28;20124;-50
2022/02/18 00:34:09;;;;;;;23.77;8.93;;;27.70;71.90;;;;;;4981543;28;20022;-51
2022/02/18 00:36:35;;;;;;;23.27;7.82;;;27.70;71.90;;;;;;4983239;28;20034;-52
2022/02/18 00:39:02;;;;;;;25.40;7.95;;;27.70;71.80;;;;;;4982833;28;20228;-51
2022/02/18 00:41:29;;;;;;;21.35;7.85;;;27.70;71.80;;;;;;4982778;28;20249;-50
2022/02/18 00:43:56;;;;;;;23.40;8.13;;;27.70;71.70;;;;;;4982024;28;20031;-47
2022/02/18 00:46:22;;;;;;;27.77;8.23;;;27.70;71.60;;;;;;4982954;28;20050;-52
2022/02/18 00:48:50;;;;;;;27.70;8.50;;;27.70;71.30;;;;;;4982848;28;20034;-50
2022/02/18 00:51:17;;;;;;;23.77;8.05;;;27.70;71.30;;;;;;4982624;28;20026;-52
2022/02/18 00:53:44;;;;;;;24.00;8.30;;;27.70;71.00;;;;;;5026194;28;20029;-51
2022/02/18 00:56:10;;;;;;;19.80;7.78;;;27.70;71.00;;;;;;5031053;28;20220;-54
2022/02/18 00:58:37;;;;;;;20.98;7.57;;;27.70;70.90;;;;;;5029599;28;20312;-52
2022/02/18 01:01:08;;;;;;;25.85;7.97;;;27.70;70.70;;;;;;5034493;28;20035;-55
2022/02/18 01:03:35;;;;;;;23.05;8.32;;;27.60;70.60;;;;;;4975072;28;20346;-52
2022/02/18 01:06:02;;;;;;;23.55;7.18;;;27.60;70.60;;;;;;4981478;28;20049;-55
2022/02/18 01:08:31;;;;;;;20.77;7.72;;;27.60;70.50;;;;;;4980513;28;20043;-46
2022/02/18 01:10:59;;;;;;;29.98;8.57;;;27.60;70.40;;;;;;4981146;28;20242;-47
2022/02/18 01:13:28;;;;;;;25.10;8.60;;;27.60;70.50;;;;;;4981839;28;20266;-49
2022/02/18 01:15:56;;;;;;;23.15;9.50;;;27.60;70.70;;;;;;4978873;28;20034;-47
2022/02/18 01:18:22;;;;;;;29.73;14.15;;;27.60;70.60;;;;;;4981636;28;20307;-49
2022/02/18 01:20:50;;;;;;;29.58;12.75;;;27.50;70.80;;;;;;4981165;28;20074;-47
2022/02/18 01:23:16;;;;;;;26.15;9.57;;;27.50;70.80;;;;;;4980207;28;20034;-58
2022/02/18 01:25:46;;;;;;;30.02;9.13;;;27.60;70.80;;;;;;4981272;28;20031;-51
2022/02/18 01:28:12;;;;;;;21.65;8.30;;;27.50;70.80;;;;;;4981540;28;20045;-52
2022/02/18 01:30:39;;;;;;;26.83;8.70;;;27.50;71.00;;;;;;4981133;28;20038;-49
2022/02/18 01:33:05;;;;;;;32.40;9.13;;;27.50;71.40;;;;;;4981230;28;20034;-54
2022/02/18 01:35:34;;;;;;;28.10;8.65;;;27.50;70.80;;;;;;4981209;28;20027;-48
2022/02/18 01:38:02;;;;;;;28.50;8.60;;;27.50;70.80;;;;;;4981545;28;20015;-50
2022/02/18 01:40:29;;;;;;;23.90;7.68;;;27.50;70.70;;;;;;4981434;28;20023;-52
2022/02/18 01:42:56;;;;;;;20.90;8.52;;;27.50;70.50;;;;;;4980913;28;20034;-53
2022/02/18 01:48:18;;;;;;;16.63;7.18;;;27.40;70.30;;;;;;4982515;28;20406;-49
2022/02/18 01:50:48;;;;;;;22.30;7.50;;;27.50;70.40;;;;;;4967632;28;20238;-54
2022/02/18 01:53:15;;;;;;;19.40;7.53;;;27.50;70.50;;;;;;4985057;28;20039;-53
2022/02/18 01:55:42;;;;;;;17.13;7.55;;;27.40;70.30;;;;;;4984872;28;20321;-50
2022/02/18 01:58:09;;;;;;;20.55;8.13;;;27.50;70.20;;;;;;4984052;28;20035;-49
2022/02/18 02:00:36;;;;;;;16.35;7.07;;;27.40;70.20;;;;;;4984775;28;20039;-52
2022/02/18 02:03:07;;;;;;;21.05;7.13;;;27.40;70.40;;;;;;4985075;28;20099;-49
2022/02/18 02:05:34;;;;;;;21.63;7.20;;;27.40;70.20;;;;;;4985239;28;20034;-49
2022/02/18 02:08:02;;;;;;;24.08;7.65;;;27.40;70.50;;;;;;4983947;28;20083;-47
2022/02/18 02:10:29;;;;;;;21.55;7.82;;;27.40;70.40;;;;;;4983783;28;20219;-54
2022/02/18 02:12:56;;;;;;;16.60;6.85;;;27.40;70.40;;;;;;4985068;28;20033;-50
2022/02/18 02:15:26;;;;;;;17.10;7.30;;;27.40;70.60;;;;;;4983581;28;20026;-50
2022/02/18 02:17:53;;;;;;;21.92;7.18;;;27.40;70.80;;;;;;4985082;28;20102;-51
2022/02/18 02:20:21;;;;;;;23.40;7.25;;;27.30;70.60;;;;;;4983807;28;20072;-50
2022/02/18 02:22:48;;;;;;;26.85;8.82;;;27.30;70.60;;;;;;4985109;28;20062;-50
2022/02/18 02:25:14;;;;;;;34.47;22.15;;;27.30;70.40;;;;;;4984090;28;20033;-52
2022/02/18 02:27:44;;;;;;;35.70;23.42;;;27.30;70.30;;;;;;4984882;28;20026;-52
2022/02/18 02:30:12;;;;;;;47.65;34.85;;;27.40;70.70;;;;;;4983457;28;20314;-48
2022/02/18 02:32:39;;;;;;;23.23;13.25;;;27.30;70.60;;;;;;4984755;28;20252;-47
2022/02/18 02:35:06;;;;;;;29.58;13.05;;;27.30;70.50;;;;;;4984720;28;20058;-56
2022/02/18 02:37:33;;;;;;;20.13;10.18;;;27.30;70.30;;;;;;4984749;28;20042;-49
2022/02/18 02:39:59;;;;;;;21.17;8.90;;;27.30;70.50;;;;;;4984871;28;20148;-53
2022/02/18 02:42:26;;;;;;;18.25;8.73;;;27.30;70.20;;;;;;4984711;28;20026;-52
2022/02/18 02:44:53;;;;;;;18.85;8.43;;;27.30;70.20;;;;;;4984483;28;20040;-49
2022/02/18 02:47:19;;;;;;;21.42;8.02;;;27.30;70.20;;;;;;4983269;28;20038;-53
2022/02/18 02:49:46;;;;;;;15.55;7.60;;;27.30;70.30;;;;;;4983300;28;20095;-50
2022/02/18 02:52:14;;;;;;;18.55;8.23;;;27.30;70.50;;;;;;4984739;28;20034;-47
2022/02/18 02:54:41;;;;;;;16.08;7.32;;;27.30;71.00;;;;;;4984590;28;20034;-50
2022/02/18 02:57:07;;;;;;;20.05;7.45;;;27.30;70.90;;;;;;4984092;28;20352;-50
2022/02/18 02:59:34;;;;;;;17.40;6.80;;;27.30;71.10;;;;;;4984537;28;20104;-46
2022/02/18 03:02:01;;;;;;;18.85;7.25;;;27.30;70.90;;;;;;4984331;28;20027;-52
2022/02/18 03:04:27;;;;;;;22.80;6.95;;;27.30;70.60;;;;;;4984949;28;20023;-48
2022/02/18 03:06:54;;;;;;;17.00;7.28;;;27.20;71.00;;;;;;4984103;28;20031;-50
2022/02/18 03:09:21;;;;;;;19.17;7.35;;;27.20;71.20;;;;;;4984693;28;20027;-50
2022/02/18 03:11:47;;;;;;;19.05;6.97;;;27.20;71.50;;;;;;4984098;28;20302;-48
2022/02/18 03:14:14;;;;;;;25.55;7.68;;;27.20;71.90;;;;;;4984618;28;20030;-54
2022/02/18 03:16:41;;;;;;;18.15;7.07;;;27.20;71.30;;;;;;4984150;28;20033;-53
2022/02/18 03:19:07;;;;;;;21.80;14.25;;;27.20;71.20;;;;;;4984617;28;20333;-49
2022/02/18 03:21:35;;;;;;;21.90;14.88;;;27.20;71.10;;;;;;4983850;28;20074;-46
2022/02/18 03:24:02;;;;;;;45.70;39.08;;;27.20;71.40;;;;;;4984655;28;20061;-50
2022/02/18 03:26:28;;;;;;;22.85;15.98;;;27.20;71.60;;;;;;4983914;28;20398;-51
2022/02/18 03:28:55;;;;;;;19.55;12.27;;;27.20;71.60;;;;;;4984420;28;20031;-48
2022/02/18 03:31:22;;;;;;;18.33;9.48;;;27.20;71.30;;;;;;4983673;28;20054;-52
2022/02/18 03:33:48;;;;;;;16.85;8.23;;;27.20;71.10;;;;;;4983714;28;20023;-55
2022/02/18 03:36:15;;;;;;;18.33;8.05;;;27.20;71.60;;;;;;4983935;28;20027;-51
2022/02/18 03:38:41;;;;;;;17.45;7.72;;;27.20;71.40;;;;;;4984141;28;20054;-51
2022/02/18 03:41:08;;;;;;;20.35;8.02;;;27.20;71.30;;;;;;4983651;28;20304;-55
2022/02/18 03:43:35;;;;;;;16.25;7.70;;;27.20;71.00;;;;;;4983993;28;20041;-53
2022/02/18 03:46:02;;;;;;;14.45;7.30;;;27.20;71.20;;;;;;4983627;28;20027;-51
2022/02/18 03:48:30;;;;;;;18.67;6.80;;;27.20;71.30;;;;;;4984013;28;20084;-51
2022/02/18 03:50:57;;;;;;;14.43;6.82;;;27.20;71.20;;;;;;4983479;28;20076;-51
2022/02/18 03:53:24;;;;;;;15.10;6.80;;;27.20;70.90;;;;;;4983750;28;20215;-49
2022/02/18 03:55:50;;;;;;;16.98;6.75;;;27.20;71.30;;;;;;4983555;28;20030;-53
2022/02/18 03:58:17;;;;;;;13.90;7.07;;;27.20;71.00;;;;;;4982200;28;20060;-53
2022/02/18 04:00:43;;;;;;;17.27;7.38;;;27.20;70.90;;;;;;4982420;28;20256;-48
2022/02/18 04:03:10;;;;;;;15.50;7.40;;;27.20;70.70;;;;;;4983488;28;20314;-54
2022/02/18 04:05:37;;;;;;;13.32;7.72;;;27.20;70.80;;;;;;4983176;28;20030;-50
2022/02/18 04:08:04;;;;;;;17.23;8.20;;;27.20;70.60;;;;;;4983538;28;20026;-51
2022/02/18 04:10:30;;;;;;;15.25;7.68;;;27.20;70.60;;;;;;4982472;28;20019;-51
2022/02/18 04:12:57;;;;;;;16.38;7.72;;;27.30;70.60;;;;;;4983223;28;20066;-54
2022/02/18 04:15:23;;;;;;;12.63;7.20;;;27.30;70.60;;;;;;4981808;28;20027;-52
2022/02/18 04:17:50;;;;;;;16.05;7.68;;;27.30;70.40;;;;;;4983172;28;20061;-52
2022/02/18 04:20:17;;;;;;;16.15;7.32;;;27.30;70.50;;;;;;4982719;28;20047;-50
2022/02/18 04:22:43;;;;;;;17.50;7.80;;;27.30;70.50;;;;;;4983120;28;20031;-52
2022/02/18 04:25:10;;;;;;;15.90;7.63;;;27.30;70.40;;;;;;4983030;28;20271;-51
2022/02/18 04:27:36;;;;;;;12.30;7.20;;;27.30;70.30;;;;;;4983050;28;20352;-52
2022/02/18 04:30:04;;;;;;;15.70;7.50;;;27.30;70.30;;;;;;4982950;28;20081;-51
2022/02/18 04:32:31;;;;;;;17.80;7.57;;;27.30;70.30;;;;;;4982573;28;20031;-51
2022/02/18 04:34:59;;;;;;;17.23;7.75;;;27.30;70.40;;;;;;4982973;28;20041;-51
2022/02/18 04:37:26;;;;;;;15.75;6.80;;;27.20;70.20;;;;;;4982839;28;20035;-54
2022/02/18 04:39:52;;;;;;;15.77;6.95;;;27.30;70.20;;;;;;4982939;28;20076;-50
2022/02/18 04:42:20;;;;;;;16.10;7.22;;;27.30;70.20;;;;;;4982649;28;20098;-50
2022/02/18 04:44:46;;;;;;;13.90;6.80;;;27.30;70.10;;;;;;4982918;28;20215;-52
2022/02/18 04:47:13;;;;;;;15.15;6.38;;;27.20;70.10;;;;;;4982486;28;20030;-52
2022/02/18 04:49:40;;;;;;;14.05;6.57;;;27.20;70.10;;;;;;4982634;28;20039;-52
2022/02/18 04:52:07;;;;;;;11.90;6.35;;;27.20;70.10;;;;;;4982446;28;20061;-52
2022/02/18 04:54:34;;;;;;;13.10;6.72;;;27.20;70.10;;;;;;4982577;28;20038;-52
2022/02/18 04:57:01;;;;;;;13.27;6.28;;;27.20;70.10;;;;;;4982713;28;20030;-52
2022/02/18 04:59:29;;;;;;;15.02;6.22;;;27.20;70.10;;;;;;4982983;28;20100;-52
2022/02/18 05:01:55;;;;;;;13.15;6.68;;;27.20;70.70;;;;;;4982036;28;20031;-54
2022/02/18 05:04:23;;;;;;;9.88;5.78;;;27.20;70.20;;;;;;4982639;28;20027;-51
2022/02/18 05:06:49;;;;;;;15.73;6.03;;;27.20;70.30;;;;;;4982268;28;20030;-50
2022/02/18 05:09:16;;;;;;;14.38;6.43;;;27.20;70.20;;;;;;4982935;28;20035;-55
2022/02/18 05:11:43;;;;;;;19.98;6.90;;;27.20;70.20;;;;;;4982470;28;20206;-55
2022/02/18 05:14:09;;;;;;;13.23;6.80;;;27.30;70.30;;;;;;4982656;28;20035;-51
2022/02/18 05:16:36;;;;;;;16.30;6.63;;;27.20;70.20;;;;;;4982317;28;20031;-51
2022/02/18 05:19:04;;;;;;;17.40;6.72;;;27.30;70.30;;;;;;4982650;28;20019;-46
2022/02/18 05:21:30;;;;;;;16.38;6.20;;;27.20;70.30;;;;;;4980823;28;20050;-57
2022/02/18 05:23:57;;;;;;;16.67;6.70;;;27.30;70.40;;;;;;4982525;28;20214;-51
2022/02/18 05:26:24;;;;;;;13.25;6.55;;;27.20;70.30;;;;;;4982477;28;20026;-52
2022/02/18 05:28:50;;;;;;;11.57;5.57;;;27.20;70.30;;;;;;4982614;28;20054;-50
2022/02/18 05:31:17;;;;;;;14.00;6.80;;;27.20;70.30;;;;;;4982305;28;20048;-51
2022/02/18 05:33:43;;;;;;;19.35;6.82;;;27.20;70.20;;;;;;4982492;28;20042;-55
2022/02/18 05:36:10;;;;;;;18.27;6.90;;;27.20;70.10;;;;;;4981967;28;20349;-52
2022/02/18 05:38:37;;;;;;;19.60;6.88;;;27.20;70.10;;;;;;4982388;28;20322;-58
2022/02/18 05:41:03;;;;;;;16.85;6.45;;;27.20;70.10;;;;;;4982027;28;20204;-51
2022/02/18 05:43:32;;;;;;;16.10;6.78;;;27.20;70.00;;;;;;4982118;28;20033;-52
2022/02/18 05:45:58;;;;;;;15.43;7.13;;;27.20;70.10;;;;;;4981907;28;20215;-51
2022/02/18 05:48:25;;;;;;;17.55;6.25;;;27.20;70.10;;;;;;4982287;28;20028;-52
2022/02/18 05:50:51;;;;;;;14.90;6.43;;;27.20;70.10;;;;;;4981812;28;20090;-52
2022/02/18 05:53:18;;;;;;;17.08;6.40;;;27.20;70.10;;;;;;4982198;28;20031;-52
2022/02/18 05:55:44;;;;;;;14.23;6.93;;;27.20;70.40;;;;;;4981932;28;20050;-52
2022/02/18 05:58:11;;;;;;;15.55;6.55;;;27.20;70.60;;;;;;4981952;28;20043;-51
2022/02/18 06:00:38;;;;;;;14.98;6.38;;;27.20;70.40;;;;;;4981941;28;20069;-52
2022/02/18 06:03:04;;;;;;;15.10;6.47;;;27.20;70.40;;;;;;4981909;28;20038;-54
2022/02/18 06:05:31;;;;;;;15.38;6.65;;;27.20;70.40;;;;;;4982119;28;20265;-59
2022/02/18 06:07:57;;;;;;;17.08;6.88;;;27.20;70.40;;;;;;4982194;28;20046;-51
2022/02/18 06:10:24;;;;;;;16.33;6.70;;;27.20;70.30;;;;;;4981620;28;20038;-51
2022/02/18 06:12:52;;;;;;;20.00;6.50;;;27.20;70.40;;;;;;4981981;28;20307;-51
2022/02/18 06:15:19;;;;;;;14.57;6.97;;;27.20;70.40;;;;;;4981766;28;20062;-53
2022/02/18 06:17:46;;;;;;;16.23;6.40;;;27.20;70.50;;;;;;4982178;28;20049;-52
2022/02/18 06:20:13;;;;;;;14.05;6.43;;;27.20;70.60;;;;;;4981476;28;20339;-51
2022/02/18 06:22:39;;;;;;;15.20;6.68;;;27.20;70.70;;;;;;4982240;28;20041;-53
2022/02/18 06:25:09;;;;;;;11.57;5.97;;;27.20;70.70;;;;;;4981747;28;20034;-59
2022/02/18 06:27:36;;;;;;;13.15;6.20;;;27.20;70.70;;;;;;4981047;28;20219;-54
2022/02/18 06:30:03;;;;;;;14.68;6.32;;;27.20;70.70;;;;;;4981957;28;20279;-51
2022/02/18 06:32:30;;;;;;;15.88;6.15;;;27.20;70.70;;;;;;4982487;28;20307;-55
2022/02/18 06:34:57;;;;;;;14.98;6.70;;;27.20;70.70;;;;;;4984785;28;20031;-56
2022/02/18 06:37:23;;;;;;;12.30;6.47;;;27.10;70.60;;;;;;4984665;28;20319;-55
2022/02/18 06:39:50;;;;;;;14.80;6.18;;;27.20;70.60;;;;;;4984666;28;20267;-53
2022/02/18 06:42:17;;;;;;;14.23;6.40;;;27.20;70.70;;;;;;4984747;28;20035;-51
2022/02/18 06:44:44;;;;;;;15.75;6.38;;;27.20;70.70;;;;;;4984732;28;20027;-51
2022/02/18 06:47:11;;;;;;;14.70;5.95;;;27.20;70.70;;;;;;4985014;28;20039;-52
2022/02/18 06:49:38;;;;;;;14.95;6.53;;;27.10;70.60;;;;;;4984647;28;20023;-51
2022/02/18 06:52:05;;;;;;;16.58;6.55;;;27.20;70.60;;;;;;4984650;28;20033;-51
2022/02/18 06:54:32;;;;;;;15.35;6.68;;;27.10;70.60;;;;;;4984843;28;20175;-51
2022/02/18 06:57:00;;;;;;;15.07;6.75;;;27.10;70.60;;;;;;4984815;28;20044;-51
2022/02/18 06:59:27;;;;;;;13.70;6.55;;;27.10;70.50;;;;;;4985072;28;20062;-57
2022/02/18 07:01:54;;;;;;;14.45;6.05;;;27.10;70.70;;;;;;4983215;28;20337;-51
2022/02/18 07:04:22;;;;;;;15.23;6.28;;;27.10;70.70;;;;;;4985115;28;20058;-51
2022/02/18 07:06:49;;;;;;;16.13;6.15;;;27.10;70.70;;;;;;4984740;28;20030;-54
2022/02/18 07:09:16;;;;;;;18.33;7.03;;;27.10;71.20;;;;;;4985194;28;20037;-52
2022/02/18 07:11:43;;;;;;;12.65;6.30;;;27.10;70.70;;;;;;4984425;28;20287;-52
2022/02/18 07:14:14;;;;;;;14.98;5.57;;;27.10;70.80;;;;;;4984864;28;20022;-53
2022/02/18 07:16:41;;;;;;;13.55;6.35;;;27.10;70.90;;;;;;4984210;28;20077;-52
2022/02/18 07:19:13;;;;;;;12.55;6.10;;;27.10;71.00;;;;;;4984166;28;20074;-51
2022/02/18 07:21:40;;;;;;;10.07;6.13;;;27.10;71.40;;;;;;4984124;28;20088;-53
2022/02/18 07:24:11;;;;;;;18.20;7.00;;;27.10;71.60;;;;;;4984470;28;20031;-55
2022/02/18 07:26:38;;;;;;;17.98;6.53;;;27.10;71.60;;;;;;4983844;28;20045;-51
2022/02/18 07:29:05;;;;;;;15.68;6.60;;;27.10;71.40;;;;;;4984393;28;20062;-58
2022/02/18 07:31:32;;;;;;;19.77;6.78;;;27.10;71.50;;;;;;4984116;28;20073;-52
2022/02/18 07:33:59;;;;;;;12.88;6.93;;;27.10;71.70;;;;;;4983758;28;20038;-55
2022/02/18 07:36:26;;;;;;;15.70;7.20;;;27.10;71.50;;;;;;4984057;28;20086;-54
2022/02/18 07:38:52;;;;;;;15.27;6.38;;;27.10;71.70;;;;;;4984343;28;20023;-52
2022/02/18 07:41:19;;;;;;;14.30;6.28;;;27.10;71.70;;;;;;4984148;28;20101;-50
2022/02/18 07:43:45;;;;;;;12.68;6.75;;;27.10;71.50;;;;;;4983827;28;20324;-54
2022/02/18 07:46:12;;;;;;;14.25;6.68;;;27.10;71.60;;;;;;4984006;28;20211;-51
2022/02/18 07:48:39;;;;;;;12.88;6.28;;;27.10;71.60;;;;;;4984193;28;20262;-53
2022/02/18 07:51:07;;;;;;;15.40;6.43;;;27.10;71.70;;;;;;4983687;28;20026;-51
2022/02/18 07:53:34;;;;;;;15.93;6.90;;;27.10;71.70;;;;;;4984433;28;20065;-52
2022/02/18 07:56:01;;;;;;;14.88;6.72;;;27.10;71.70;;;;;;4983532;28;20035;-56
2022/02/18 07:58:28;;;;;;;16.42;7.05;;;27.10;71.70;;;;;;4984173;28;20050;-53
2022/02/18 08:00:54;;;;;;;18.27;7.05;;;27.10;71.70;;;;;;4983609;28;20035;-51
2022/02/18 08:03:21;;;;;;;15.48;6.63;;;27.10;71.90;;;;;;4984362;28;20031;-55
2022/02/18 08:05:47;;;;;;;18.05;7.10;;;27.10;71.90;;;;;;4984031;28;20059;-56
2022/02/18 08:08:15;;;;;;;15.00;6.90;;;27.10;72.10;;;;;;4984109;28;20207;-52
2022/02/18 08:10:41;;;;;;;15.43;6.90;;;27.00;71.70;;;;;;4983516;28;20339;-52
2022/02/18 08:13:08;;;;;;;17.25;7.05;;;27.00;71.60;;;;;;4984068;28;20066;-49
2022/02/18 08:15:35;;;;;;;18.13;6.90;;;27.00;71.50;;;;;;4983454;28;20018;-52
2022/02/18 08:18:01;;;;;;;16.17;6.75;;;27.00;71.60;;;;;;4983385;28;20253;-51
2022/02/18 08:20:28;;;;;;;17.10;7.07;;;27.00;71.80;;;;;;4983075;28;20047;-53
2022/02/18 08:22:54;;;;;;;15.25;6.60;;;27.00;71.70;;;;;;4983278;28;20035;-52
2022/02/18 08:25:21;;;;;;;13.98;6.30;;;27.00;71.40;;;;;;4983259;28;20050;-52
2022/02/18 08:27:47;;;;;;;16.40;6.78;;;27.00;71.40;;;;;;4983385;28;20054;-52
2022/02/18 08:30:14;;;;;;;17.60;7.20;;;27.00;71.40;;;;;;4983226;28;20168;-52
2022/02/18 08:32:41;;;;;;;15.18;6.93;;;27.00;71.40;;;;;;4983462;28;20037;-52
2022/02/18 08:35:07;;;;;;;14.70;6.30;;;27.00;71.60;;;;;;4983030;28;20062;-51
2022/02/18 08:37:34;;;;;;;14.90;6.47;;;27.00;71.40;;;;;;4983359;28;20029;-53
2022/02/18 08:40:01;;;;;;;16.23;7.40;;;27.00;71.40;;;;;;4983288;28;20026;-53
2022/02/18 08:42:28;;;;;;;14.57;6.90;;;27.00;71.40;;;;;;4982812;28;20043;-55
2022/02/18 08:44:54;;;;;;;16.25;7.13;;;27.00;71.40;;;;;;4983286;28;20026;-52
2022/02/18 08:47:21;;;;;;;17.10;6.72;;;27.00;71.40;;;;;;4983347;28;20027;-52
2022/02/18 08:49:47;;;;;;;13.13;6.28;;;27.00;71.70;;;;;;4982644;28;20031;-56
2022/02/18 08:52:14;;;;;;;15.98;7.00;;;27.00;71.90;;;;;;4983060;28;20018;-52
2022/02/18 08:54:41;;;;;;;15.43;6.78;;;27.00;71.60;;;;;;4982779;28;20058;-54
2022/02/18 08:57:07;;;;;;;17.60;7.25;;;27.00;71.60;;;;;;4982369;28;20096;-52
2022/02/18 08:59:34;;;;;;;17.67;6.43;;;27.00;71.60;;;;;;4983085;28;20027;-58
2022/02/18 09:02:01;;;;;;;20.70;7.10;;;27.00;71.60;;;;;;4983368;28;20031;-51
2022/02/18 09:04:27;;;;;;;17.08;7.50;;;27.00;71.80;;;;;;4982831;28;20025;-49
2022/02/18 09:06:54;;;;;;;13.50;6.70;;;27.00;71.90;;;;;;4982466;28;20376;-54
2022/02/18 09:09:22;;;;;;;15.15;7.18;;;27.00;71.60;;;;;;4982960;28;20311;-55
2022/02/18 09:11:48;;;;;;;17.38;7.25;;;27.00;71.40;;;;;;4982414;28;20035;-57
2022/02/18 09:14:16;;;;;;;14.52;6.63;;;27.00;71.40;;;;;;4982979;28;20057;-51
2022/02/18 09:16:46;;;;;;;14.38;7.03;;;27.00;71.30;;;;;;4982580;28;20047;-55
2022/02/18 09:19:13;;;;;;;23.35;7.20;;;27.00;71.50;;;;;;4982063;28;20031;-51
2022/02/18 09:21:40;;;;;;;17.17;7.18;;;27.00;71.50;;;;;;4982146;28;20116;-55
2022/02/18 09:24:06;;;;;;;16.08;6.65;;;27.00;71.40;;;;;;4982716;28;20291;-54
2022/02/18 09:26:33;;;;;;;17.20;6.60;;;27.00;71.40;;;;;;4982432;28;20033;-51
2022/02/18 09:29:00;;;;;;;16.50;6.68;;;27.00;71.40;;;;;;4982799;28;20046;-58
2022/02/18 09:31:27;;;;;;;17.75;7.22;;;27.00;71.50;;;;;;4982126;28;20039;-56
2022/02/18 09:33:54;;;;;;;13.40;7.30;;;27.00;71.70;;;;;;4982434;28;20325;-53
2022/02/18 09:36:21;;;;;;;17.42;6.90;;;27.00;71.90;;;;;;4982731;28;20043;-53
2022/02/18 09:38:48;;;;;;;15.23;7.10;;;27.00;72.00;;;;;;4982402;28;20042;-54
2022/02/18 09:41:14;;;;;;;13.95;7.07;;;27.00;71.90;;;;;;4982197;28;20027;-53
2022/02/18 09:43:41;;;;;;;18.85;7.35;;;27.00;71.80;;;;;;4982500;28;20043;-52
2022/02/18 09:46:08;;;;;;;18.35;7.28;;;27.00;71.70;;;;;;4981889;28;20135;-51
2022/02/18 09:48:38;;;;;;;17.27;6.95;;;27.00;71.80;;;;;;4982474;28;20039;-52
2022/02/18 09:51:07;;;;;;;18.35;7.50;;;27.00;71.90;;;;;;4982732;28;20038;-56
2022/02/18 09:53:34;;;;;;;18.92;6.93;;;27.00;72.00;;;;;;4982182;28;20035;-53
2022/02/18 09:56:03;;;;;;;16.95;7.15;;;27.00;72.10;;;;;;4981874;28;20027;-57
2022/02/18 09:58:30;;;;;;;20.77;7.32;;;27.00;72.00;;;;;;4982430;28;20034;-53
2022/02/18 10:00:56;;;;;;;16.25;7.20;;;27.00;71.90;;;;;;4982125;28;20370;-52
2022/02/18 10:03:23;;;;;;;14.95;6.65;;;26.90;71.70;;;;;;4981664;28;20085;-53
2022/02/18 10:05:49;;;;;;;18.00;7.28;;;26.90;71.50;;;;;;4982248;28;20088;-58
2022/02/18 10:08:22;;;;;;;14.93;7.18;;;26.90;71.60;;;;;;4983687;28;20043;-54
2022/02/18 10:11:07;;;;;;;;;;;26.90;71.40;;;;;;4985327;28;20034;-54
2022/02/18 10:13:41;;;;;;;20.25;7.00;;;27.00;71.50;;;;;;4985577;28;19956;-53
2022/02/18 10:16:25;;;;;;;17.60;7.07;;;26.90;71.40;;;;;;4984938;28;20227;-55
2022/02/18 10:18:54;;;;;;;17.80;7.07;;;26.90;71.30;;;;;;4985335;28;20046;-54
2022/02/18 10:21:28;;;;;;;18.88;7.20;;;26.90;71.40;;;;;;4984775;28;20279;-53
2022/02/18 10:24:17;;;;;;;21.05;7.05;;;26.90;71.60;;;;;;4985496;28;20035;-53
2022/02/18 10:26:45;;;;;;;17.35;7.45;;;26.90;71.60;;;;;;4984976;28;20031;-52
2022/02/18 10:29:25;;;;;;;19.67;7.13;;;26.90;71.70;;;;;;4985506;28;20084;-54
2022/02/18 10:32:08;;;;;;;18.45;7.45;;;26.90;71.80;;;;;;4984699;28;20023;-52
2022/02/18 10:35:00;;;;;;;15.48;6.93;;;26.90;71.90;;;;;;4984973;28;20027;-50
2022/02/18 10:37:29;;;;;;;21.10;8.23;;;26.90;72.10;;;;;;4984970;28;20031;-55
2022/02/18 10:40:10;;;;;;;22.90;8.35;;;27.00;72.20;;;;;;4984910;28;20031;-51
2022/02/18 10:42:37;;;;;;;16.70;7.70;;;26.90;72.10;;;;;;4984925;28;20027;-54
2022/02/18 10:45:28;;;;;;;18.90;7.40;;;26.90;72.40;;;;;;4984752;28;20035;-52
2022/02/18 10:48:08;;;;;;;21.17;7.40;;;26.90;72.60;;;;;;4984480;28;20042;-50
2022/02/18 10:50:35;;;;;;;20.85;7.80;;;26.90;72.90;;;;;;4984587;28;20092;-52
2022/02/18 10:53:12;;;;;;;20.63;7.90;;;26.90;73.00;;;;;;4984583;28;20073;-55
2022/02/18 10:55:53;;;;;;;17.05;7.50;;;26.90;73.10;;;;;;4984412;28;20034;-58
2022/02/18 10:58:27;;;;;;;18.58;7.70;;;26.90;73.10;;;;;;4984262;28;20249;-54
2022/02/18 11:01:22;;;;;;;19.30;8.02;;;26.90;73.20;;;;;;4984541;28;20035;-54
2022/02/18 11:03:52;;;;;;;19.27;7.43;;;26.90;73.20;;;;;;5033658;28;20032;-52
2022/02/18 11:06:33;;;;;;;20.42;7.80;;;26.90;73.30;;;;;;5086394;28;20056;-57
2022/02/18 11:09:05;;;;;;;15.43;7.22;;;26.90;73.20;;;;;;5086775;28;20067;-51
2022/02/18 11:11:31;;;;;;;;;;;26.90;73.30;;;;;;5086685;28;20058;-51
2022/02/18 11:14:00;;;;;;;22.77;7.80;;;26.90;73.40;;;;;;5086881;28;19915;-52
2022/02/18 11:16:28;;;;;;;25.65;8.48;;;26.90;73.40;;;;;;5086646;28;20020;-52
2022/02/18 11:18:57;;;;;;;18.63;7.72;;;26.80;73.60;;;;;;5086897;28;20197;-54
2022/02/18 11:21:27;;;;;;;20.95;8.02;;;26.80;73.80;;;;;;5085867;28;20052;-58
2022/02/18 11:23:57;;;;;;;20.67;8.18;;;26.80;74.00;;;;;;5086458;28;20040;-51
2022/02/18 11:26:27;;;;;;;34.67;8.45;;;26.80;73.90;;;;;;5086217;28;20251;-48
2022/02/18 11:28:54;;;;;;;56.92;10.13;;;26.80;74.10;;;;;;5086334;28;20362;-56
2022/02/18 11:31:42;;;;;;;54.25;10.02;;;26.80;74.70;;;;;;5085934;28;20036;-49
2022/02/18 11:34:27;;;;;;;75.63;12.00;;;26.80;74.60;;;;;;5086218;28;20315;-52
2022/02/18 11:37:07;;;;;;;33.15;9.35;;;26.80;74.60;;;;;;5086375;28;20212;-50
2022/02/18 11:40:02;;;;;;;28.98;9.07;;;26.80;74.90;;;;;;5085076;28;20036;-51
2022/02/18 11:42:42;;;;;;;28.73;8.82;;;26.80;75.10;;;;;;5083911;28;20048;-51
2022/02/18 11:45:17;;;;;;;34.53;9.70;;;26.80;75.20;;;;;;5083945;28;20039;-53
2022/02/18 11:47:48;;;;;;;27.95;8.98;;;26.90;75.60;;;;;;5083865;28;20029;-52
2022/02/18 11:50:17;;;;;;;28.88;8.90;;;26.90;75.70;;;;;;5083999;28;20400;-51
2022/02/18 11:52:49;;;;;;;29.65;8.80;;;26.80;75.80;;;;;;5084013;28;20033;-54
2022/02/18 11:55:36;;;;;;;48.80;11.40;;;26.80;75.90;;;;;;5085585;28;20384;-54
2022/02/18 11:58:07;;;;;;;73.00;12.90;;;26.80;76.20;;;;;;5085946;28;20029;-51
2022/02/18 12:00:45;;;;;;;82.40;14.73;;;26.80;76.20;;;;;;5085538;28;20197;-53
2022/02/18 12:03:23;;;;;;;79.57;13.95;;;26.80;76.40;;;;;;5085879;28;20288;-49
2022/02/18 12:06:23;;;;;;;70.72;12.35;;;26.80;76.40;;;;;;5086174;28;20028;-50
2022/02/18 12:08:50;;;;;;;60.10;12.07;;;26.90;76.80;;;;;;5086136;28;20028;-52
2022/02/18 12:11:18;;;;;;;61.60;12.63;;;26.90;76.70;;;;;;5085290;28;20188;-54
2022/02/18 12:14:05;;;;;;;49.63;11.70;;;26.80;76.80;;;;;;5086131;28;20275;-53
2022/02/18 12:16:33;;;;;;;53.22;10.95;;;26.80;77.00;;;;;;5085783;28;20048;-51
2022/02/18 12:19:26;;;;;;;44.00;11.20;;;26.80;76.90;;;;;;5085624;28;20028;-52
2022/02/18 12:21:55;;;;;;;;;;;26.80;76.90;;;;;;5077715;28;20068;-54
2022/02/18 12:24:40;;;;;;;38.97;10.20;;;26.80;76.90;;;;;;5086266;28;19909;-50
2022/02/18 12:27:28;;;;;;;42.53;11.30;;;26.80;76.90;;;;;;5085725;28;20059;-51
2022/02/18 12:30:00;;;;;;;62.95;11.45;;;26.80;76.90;;;;;;5084986;28;20238;-52
2022/02/18 12:32:27;;;;;;;41.15;10.90;;;26.80;76.80;;;;;;5085532;28;20052;-49
2022/02/18 12:35:07;;;;;;;38.25;11.15;;;26.80;76.70;;;;;;5085791;28;20093;-48
2022/02/18 12:37:36;;;;;;;46.03;11.30;;;26.80;76.60;;;;;;5085549;28;20031;-50
2022/02/18 12:40:16;;;;;;;41.03;10.32;;;26.80;76.70;;;;;;5085244;28;20252;-48
2022/02/18 12:42:43;;;;;;;30.48;10.52;;;26.80;76.60;;;;;;5085171;28;20059;-53
2022/02/18 12:45:11;;;;;;;29.33;9.88;;;26.80;76.50;;;;;;5085237;28;20031;-51
2022/02/18 12:47:40;;;;;;;29.50;10.20;;;26.80;76.40;;;;;;5085293;28;20252;-53